createdAt,value
2019-03-29T00:02:13.631Z,10.50
2019-03-29T00:04:41.958Z,10.50
2019-03-29T00:07:10.178Z,10.50
2019-03-29T00:09:38.594Z,10.50
2019-03-29T00:12:06.847Z,10.60
2019-03-29T00:14:35.070Z,10.70
2019-03-29T00:17:03.271Z,10.80
2019-03-29T00:19:31.574Z,10.80
2019-03-29T00:21:59.701Z,10.80
2019-03-29T00:24:27.994Z,10.70
2019-03-29T00:26:56.202Z,10.80
2019-03-29T00:29:24.415Z,10.80
2019-03-29T00:31:52.800Z,10.70
2019-03-29T00:34:21.046Z,10.80
2019-03-29T00:36:49.426Z,10.80
2019-03-29T00:39:17.638Z,10.80
2019-03-29T00:41:45.915Z,10.70
2019-03-29T00:44:14.137Z,10.70
2019-03-29T00:46:42.473Z,10.80
2019-03-29T00:49:10.686Z,10.70
2019-03-29T00:51:38.977Z,10.60
2019-03-29T00:54:07.113Z,10.50
2019-03-29T00:56:35.294Z,10.30
2019-03-29T00:59:03.627Z,10.20
2019-03-29T01:01:31.907Z,10.20
2019-03-29T01:04:00.150Z,10.20
2019-03-29T01:06:28.429Z,10.20
2019-03-29T01:08:56.682Z,10.20
2019-03-29T01:11:25.022Z,10.10
2019-03-29T01:13:53.254Z,10.20
2019-03-29T01:16:21.376Z,10.20
2019-03-29T01:18:49.763Z,10.10
2019-03-29T01:21:17.990Z,10.10
2019-03-29T01:23:46.322Z,10.10
2019-03-29T01:26:14.553Z,10.00
2019-03-29T01:28:42.828Z,10.00
2019-03-29T01:31:30.257Z,10.00
2019-03-29T01:33:58.685Z,10.00
2019-03-29T01:36:27.879Z,10.00
2019-03-29T01:38:56.413Z,10.00
2019-03-29T01:41:24.550Z,9.90
2019-03-29T01:43:52.837Z,9.90
2019-03-29T01:46:21.063Z,10.00
2019-03-29T01:48:49.402Z,10.00
2019-03-29T01:51:17.720Z,10.00
2019-03-29T01:53:46.109Z,9.90
2019-03-29T01:56:14.953Z,9.90
2019-03-29T01:58:43.542Z,9.90
2019-03-29T02:01:11.771Z,9.90
2019-03-29T02:03:40.033Z,10.00
2019-03-29T02:06:08.397Z,10.00
2019-03-29T02:08:37.804Z,10.00
2019-03-29T02:11:06.433Z,10.00
2019-03-29T02:13:34.642Z,10.10
2019-03-29T02:16:03.809Z,10.00
2019-03-29T02:18:32.274Z,10.10
2019-03-29T02:21:00.626Z,9.90
2019-03-29T02:23:28.834Z,9.70
2019-03-29T02:25:57.244Z,9.70
2019-03-29T02:28:25.455Z,9.60
2019-03-29T02:30:53.757Z,9.50
2019-03-29T02:33:21.963Z,9.40
2019-03-29T02:35:50.265Z,9.30
2019-03-29T02:38:18.501Z,9.40
2019-03-29T02:40:46.787Z,9.30
2019-03-29T02:43:14.995Z,9.40
2019-03-29T02:45:43.298Z,9.40
2019-03-29T02:48:11.523Z,9.40
2019-03-29T02:50:39.820Z,9.50
2019-03-29T02:53:08.048Z,9.50
2019-03-29T02:55:36.354Z,9.60
2019-03-29T02:58:04.652Z,9.50
2019-03-29T03:00:32.978Z,9.50
2019-03-29T03:03:01.233Z,9.60
2019-03-29T03:05:29.617Z,9.60
2019-03-29T03:07:57.829Z,9.60
2019-03-29T03:10:26.141Z,9.60
2019-03-29T03:12:54.334Z,9.60
2019-03-29T03:15:22.795Z,9.60
2019-03-29T03:17:50.989Z,9.60
2019-03-29T03:20:19.316Z,9.50
2019-03-29T03:22:47.920Z,9.40
2019-03-29T03:25:16.141Z,9.20
2019-03-29T03:27:44.544Z,9.20
2019-03-29T03:30:14.447Z,9.30
2019-03-29T03:32:44.338Z,9.30
2019-03-29T03:35:12.653Z,9.40
2019-03-29T03:37:41.273Z,9.40
2019-03-29T03:40:10.207Z,9.30
2019-03-29T03:42:39.070Z,9.30
2019-03-29T03:45:08.971Z,9.30
2019-03-29T03:47:38.846Z,9.30
2019-03-29T03:50:14.453Z,9.30
2019-03-29T03:52:44.362Z,9.20
2019-03-29T03:55:12.561Z,9.10
2019-03-29T03:57:40.978Z,9.00
2019-03-29T04:00:10.001Z,9.00
2019-03-29T04:02:38.485Z,9.00
2019-03-29T04:05:07.063Z,8.90
2019-03-29T04:07:35.634Z,8.90
2019-03-29T04:10:04.708Z,8.90
2019-03-29T04:12:33.033Z,8.90
2019-03-29T04:15:01.247Z,8.80
2019-03-29T04:17:30.769Z,8.90
2019-03-29T04:19:58.962Z,8.80
2019-03-29T04:22:27.264Z,8.70
2019-03-29T04:24:55.531Z,8.80
2019-03-29T04:27:23.807Z,8.70
2019-03-29T04:29:52.012Z,8.80
2019-03-29T04:32:20.299Z,8.80
2019-03-29T04:34:48.607Z,8.80
2019-03-29T04:37:16.840Z,8.70
2019-03-29T04:39:45.022Z,8.80
2019-03-29T04:42:13.138Z,8.70
2019-03-29T04:44:41.321Z,8.70
2019-03-29T04:47:09.541Z,8.70
2019-03-29T04:49:37.853Z,8.70
2019-03-29T04:52:06.061Z,8.70
2019-03-29T04:54:34.354Z,8.70
2019-03-29T04:57:02.604Z,8.70
2019-03-29T04:59:31.136Z,8.70
2019-03-29T05:01:59.341Z,8.70
2019-03-29T05:04:27.635Z,8.50
2019-03-29T05:06:55.849Z,8.50
2019-03-29T05:09:24.081Z,8.40
2019-03-29T05:11:52.385Z,8.40
2019-03-29T05:14:20.581Z,8.30
2019-03-29T05:16:48.981Z,8.20
2019-03-29T05:19:17.208Z,8.20
2019-03-29T05:21:45.374Z,8.10
2019-03-29T05:24:13.601Z,8.00
2019-03-29T05:26:41.906Z,7.80
2019-03-29T05:29:10.117Z,7.80
2019-03-29T05:31:38.427Z,7.60
2019-03-29T05:34:06.758Z,7.60
2019-03-29T05:36:34.969Z,7.50
2019-03-29T05:39:04.318Z,7.40
2019-03-29T05:41:32.602Z,7.30
2019-03-29T05:44:00.926Z,7.30
2019-03-29T05:46:29.198Z,7.30
2019-03-29T05:48:57.617Z,7.30
2019-03-29T05:51:25.965Z,7.20
2019-03-29T05:53:54.198Z,7.20
2019-03-29T05:56:22.414Z,7.10
2019-03-29T05:58:50.711Z,7.10
2019-03-29T06:01:18.940Z,7.10
2019-03-29T06:03:47.377Z,7.20
2019-03-29T06:06:15.627Z,7.20
2019-03-29T06:08:43.940Z,7.20
2019-03-29T06:11:12.170Z,7.30
2019-03-29T06:13:40.374Z,7.30
2019-03-29T06:16:08.591Z,7.40
2019-03-29T06:18:36.966Z,7.40
2019-03-29T06:21:05.207Z,7.50
2019-03-29T06:23:33.477Z,7.60
2019-03-29T06:26:01.795Z,7.60
2019-03-29T06:28:30.208Z,7.70
2019-03-29T06:30:58.538Z,7.80
2019-03-29T06:33:26.648Z,7.80
2019-03-29T06:35:56.852Z,7.80
2019-03-29T06:38:28.371Z,7.80
2019-03-29T06:41:03.247Z,7.80
2019-03-29T06:43:28.451Z,7.90
2019-03-29T06:45:56.772Z,8.00
2019-03-29T06:48:25.128Z,8.10
2019-03-29T06:50:53.498Z,8.20
2019-03-29T06:53:22.217Z,8.30
2019-03-29T06:55:50.464Z,8.40
2019-03-29T06:58:18.736Z,8.40
2019-03-29T07:00:47.066Z,8.40
2019-03-29T07:03:15.425Z,8.50
2019-03-29T07:05:43.700Z,8.70
2019-03-29T07:08:11.838Z,8.70
2019-03-29T07:10:40.141Z,8.70
2019-03-29T07:13:08.408Z,8.80
2019-03-29T07:15:36.736Z,8.80
2019-03-29T07:18:04.877Z,8.80
2019-03-29T07:20:33.165Z,8.80
2019-03-29T07:23:01.428Z,8.80
2019-03-29T07:25:29.833Z,8.80
2019-03-29T07:27:58.051Z,8.80
2019-03-29T07:30:26.415Z,8.90
2019-03-29T07:32:54.642Z,8.90
2019-03-29T07:35:22.937Z,9.00
2019-03-29T07:37:51.198Z,9.00
2019-03-29T07:40:19.401Z,9.10
2019-03-29T07:42:47.633Z,9.10
2019-03-29T07:45:16.474Z,9.20
2019-03-29T07:47:44.769Z,9.30
2019-03-29T07:50:13.161Z,9.40
2019-03-29T07:52:41.554Z,9.40
2019-03-29T07:55:09.966Z,9.40
2019-03-29T07:57:38.292Z,9.50
2019-03-29T08:00:06.808Z,9.50
2019-03-29T08:02:35.618Z,9.60
2019-03-29T08:05:04.469Z,9.60
2019-03-29T08:07:33.565Z,9.70
2019-03-29T08:10:04.005Z,9.80
2019-03-29T08:12:33.163Z,9.90
2019-03-29T08:15:01.663Z,10.00
2019-03-29T08:17:31.549Z,10.00
2019-03-29T08:20:35.737Z,10.10
2019-03-29T08:22:31.669Z,10.20
2019-03-29T08:24:59.985Z,10.30
2019-03-29T08:27:28.569Z,10.50
2019-03-29T08:29:56.806Z,10.60
2019-03-29T08:32:25.124Z,10.60
2019-03-29T08:34:53.351Z,10.70
2019-03-29T08:37:21.653Z,10.70
2019-03-29T08:39:49.890Z,10.80
2019-03-29T08:42:18.661Z,11.00
2019-03-29T08:44:47.127Z,11.20
2019-03-29T08:47:15.514Z,11.20
2019-03-29T08:49:43.744Z,11.40
2019-03-29T08:52:12.040Z,11.60
2019-03-29T08:54:40.386Z,11.70
2019-03-29T08:57:10.609Z,11.90
2019-03-29T08:59:38.983Z,12.00
2019-03-29T09:02:07.321Z,12.20
2019-03-29T09:04:35.740Z,12.30
2019-03-29T09:07:03.954Z,12.50
2019-03-29T09:09:32.304Z,12.70
2019-03-29T09:12:13.768Z,12.90
2019-03-29T09:14:31.482Z,13.10
2019-03-29T09:17:00.063Z,13.50
2019-03-29T09:19:28.471Z,13.80
2019-03-29T09:21:56.692Z,14.20
2019-03-29T09:24:24.950Z,14.50
2019-03-29T09:26:53.225Z,14.70
2019-03-29T09:29:21.515Z,14.90
2019-03-29T09:31:50.039Z,15.10
2019-03-29T09:34:18.326Z,15.20
2019-03-29T09:36:46.431Z,15.40
2019-03-29T09:39:14.755Z,15.40
2019-03-29T09:41:43.027Z,15.50
2019-03-29T09:44:11.366Z,15.60
2019-03-29T09:46:39.691Z,15.70
2019-03-29T09:49:08.475Z,15.60
2019-03-29T09:51:36.903Z,15.50
2019-03-29T09:54:05.269Z,15.50
2019-03-29T09:56:39.241Z,15.60
2019-03-29T09:59:03.984Z,15.60
2019-03-29T10:01:32.442Z,15.70
2019-03-29T10:04:00.822Z,15.60
2019-03-29T10:06:29.170Z,15.50
2019-03-29T10:08:57.529Z,15.40
2019-03-29T10:11:25.955Z,15.30
2019-03-29T10:13:54.178Z,15.40
2019-03-29T10:16:25.730Z,15.10
2019-03-29T10:18:52.512Z,15.00
2019-03-29T10:21:20.837Z,14.90
2019-03-29T10:23:49.190Z,14.90
2019-03-29T10:26:17.468Z,15.00
2019-03-29T10:28:45.725Z,15.20
2019-03-29T10:31:14.045Z,15.10
2019-03-29T10:33:42.366Z,15.20
2019-03-29T10:36:10.600Z,15.20
2019-03-29T10:38:38.951Z,15.10
2019-03-29T10:41:07.399Z,15.20
2019-03-29T10:43:35.631Z,15.30
2019-03-29T10:46:03.968Z,15.30
2019-03-29T10:48:32.251Z,15.30
2019-03-29T10:51:00.650Z,15.50
2019-03-29T10:53:29.199Z,15.60
2019-03-29T10:55:57.818Z,15.60
2019-03-29T10:58:26.150Z,15.70
2019-03-29T11:00:54.416Z,15.90
2019-03-29T11:03:22.693Z,16.00
2019-03-29T11:05:50.929Z,16.10
2019-03-29T11:08:19.464Z,16.10
2019-03-29T11:10:47.700Z,16.30
2019-03-29T11:13:15.946Z,16.50
2019-03-29T11:15:44.144Z,16.40
2019-03-29T11:18:12.526Z,16.40
2019-03-29T11:20:40.933Z,16.40
2019-03-29T11:23:09.315Z,16.70
2019-03-29T11:25:37.636Z,16.80
2019-03-29T11:28:05.925Z,16.90
2019-03-29T11:30:42.205Z,17.10
2019-03-29T11:33:04.826Z,17.10
2019-03-29T11:35:33.142Z,17.20
2019-03-29T11:38:01.550Z,17.10
2019-03-29T11:40:29.805Z,17.20
2019-03-29T11:42:58.285Z,17.30
2019-03-29T11:45:26.488Z,17.60
2019-03-29T11:48:07.444Z,17.60
2019-03-29T11:50:28.801Z,17.50
2019-03-29T11:52:55.717Z,17.50
2019-03-29T11:55:24.142Z,17.70
2019-03-29T11:57:55.699Z,17.90
2019-03-29T12:00:33.691Z,17.70
2019-03-29T12:03:03.943Z,17.50
2019-03-29T12:05:35.978Z,17.40
2019-03-29T12:08:03.285Z,17.70
2019-03-29T12:10:32.108Z,18.00
2019-03-29T12:13:00.750Z,18.20
2019-03-29T12:15:29.089Z,18.50
2019-03-29T12:17:57.435Z,18.60
2019-03-29T12:20:25.731Z,18.50
2019-03-29T12:22:54.169Z,18.70
2019-03-29T12:25:22.522Z,18.90
2019-03-29T12:27:50.764Z,18.90
2019-03-29T12:30:31.229Z,19.00
2019-03-29T12:32:49.480Z,19.00
2019-03-29T12:35:17.791Z,19.00
2019-03-29T12:37:46.189Z,19.10
2019-03-29T12:40:14.485Z,19.10
2019-03-29T12:42:42.748Z,18.90
2019-03-29T12:45:11.017Z,19.10
2019-03-29T12:47:39.774Z,19.20
2019-03-29T12:50:11.340Z,19.40
2019-03-29T12:55:08.253Z,19.50
2019-03-29T12:57:38.960Z,19.60
2019-03-29T13:00:07.884Z,19.70
2019-03-29T13:02:37.612Z,19.70
2019-03-29T13:05:06.519Z,19.70
2019-03-29T13:07:35.384Z,19.70
2019-03-29T13:10:04.189Z,19.70
2019-03-29T13:12:36.288Z,19.90
2019-03-29T13:15:05.382Z,19.80
2019-03-29T13:17:33.920Z,19.80
2019-03-29T13:20:02.348Z,19.90
2019-03-29T13:22:34.830Z,20.00
2019-03-29T13:25:07.019Z,20.10
2019-03-29T13:27:34.235Z,20.10
2019-03-29T13:30:02.614Z,20.00
2019-03-29T13:32:33.590Z,20.10
2019-03-29T13:35:01.989Z,20.10
2019-03-29T13:37:31.910Z,20.20
2019-03-29T13:40:00.386Z,20.40
2019-03-29T13:42:28.893Z,20.70
2019-03-29T13:44:57.170Z,20.60
2019-03-29T13:47:25.478Z,20.60
2019-03-29T13:49:53.836Z,20.70
2019-03-29T13:52:22.177Z,20.70
2019-03-29T13:54:50.578Z,20.70
2019-03-29T13:57:19.073Z,20.60
2019-03-29T13:59:47.561Z,20.70
2019-03-29T14:02:15.887Z,20.60
2019-03-29T14:04:44.114Z,20.60
2019-03-29T14:07:12.422Z,20.60
2019-03-29T14:09:40.678Z,20.50
2019-03-29T14:12:09.023Z,20.60
2019-03-29T14:14:38.437Z,20.50
2019-03-29T14:17:07.318Z,20.40
2019-03-29T14:19:35.576Z,20.50
2019-03-29T14:22:03.874Z,20.70
2019-03-29T14:24:32.279Z,20.70
2019-03-29T14:27:01.474Z,20.60
2019-03-29T14:29:29.934Z,20.50
2019-03-29T14:31:58.163Z,20.40
2019-03-29T14:34:26.499Z,20.40
2019-03-29T14:36:54.778Z,20.40
2019-03-29T14:39:23.109Z,20.60
2019-03-29T14:41:51.382Z,20.60
2019-03-29T14:44:19.705Z,20.70
2019-03-29T14:46:47.933Z,20.80
2019-03-29T14:49:16.234Z,20.80
2019-03-29T14:51:44.548Z,20.80
2019-03-29T14:54:12.913Z,20.80
2019-03-29T14:56:41.172Z,20.90
2019-03-29T14:59:09.578Z,20.90
2019-03-29T15:01:37.974Z,21.00
2019-03-29T15:04:06.350Z,21.20
2019-03-29T15:06:34.723Z,21.20
2019-03-29T15:09:05.747Z,21.10
2019-03-29T15:11:34.022Z,21.00
2019-03-29T15:14:02.381Z,21.10
2019-03-29T15:16:30.651Z,20.90
2019-03-29T15:18:58.890Z,20.80
2019-03-29T15:21:27.143Z,20.80
2019-03-29T15:23:55.559Z,20.90
2019-03-29T15:26:23.811Z,21.00
2019-03-29T15:28:52.131Z,21.00
2019-03-29T15:31:20.434Z,20.90
2019-03-29T15:33:48.669Z,21.10
2019-03-29T15:36:16.985Z,21.10
2019-03-29T15:38:45.326Z,21.20
2019-03-29T15:41:13.656Z,21.20
2019-03-29T15:43:41.934Z,21.30
2019-03-29T15:46:10.288Z,21.10
2019-03-29T15:48:38.538Z,21.00
2019-03-29T15:51:06.885Z,21.00
2019-03-29T15:53:35.262Z,21.10
2019-03-29T15:56:03.735Z,20.80
2019-03-29T15:58:31.958Z,20.70
2019-03-29T16:01:00.838Z,20.70
2019-03-29T16:03:29.111Z,20.70
2019-03-29T16:05:57.444Z,20.50
2019-03-29T16:08:25.718Z,20.50
2019-03-29T16:10:54.041Z,20.50
2019-03-29T16:13:22.281Z,20.50
2019-03-29T16:15:50.474Z,20.40
2019-03-29T16:18:18.931Z,20.40
2019-03-29T16:20:47.486Z,20.30
2019-03-29T16:23:15.706Z,20.30
2019-03-29T16:25:43.961Z,20.20
2019-03-29T16:28:12.292Z,20.40
2019-03-29T16:30:40.541Z,20.40
2019-03-29T16:33:08.878Z,20.50
2019-03-29T16:35:37.117Z,20.40
2019-03-29T16:38:05.576Z,20.40
2019-03-29T16:40:33.970Z,20.30
2019-03-29T16:43:02.333Z,20.30
2019-03-29T16:45:30.554Z,20.40
2019-03-29T16:50:26.997Z,20.10
2019-03-29T16:52:55.314Z,19.90
2019-03-29T16:55:23.643Z,19.70
2019-03-29T16:57:52.008Z,19.70
2019-03-29T17:00:20.409Z,19.60
2019-03-29T17:02:48.651Z,19.50
2019-03-29T17:05:17.010Z,19.30
2019-03-29T17:07:45.357Z,19.10
2019-03-29T17:10:14.123Z,18.80
2019-03-29T17:12:42.616Z,18.70
2019-03-29T17:15:11.064Z,18.60
2019-03-29T17:17:39.584Z,18.50
2019-03-29T17:20:08.149Z,18.50
2019-03-29T17:22:36.638Z,18.40
2019-03-29T17:25:05.816Z,18.20
2019-03-29T17:27:34.722Z,17.90
2019-03-29T17:30:03.990Z,17.60
2019-03-29T17:32:33.899Z,17.40
2019-03-29T17:35:02.285Z,17.40
2019-03-29T17:37:32.167Z,17.40
2019-03-29T17:40:00.761Z,17.50
2019-03-29T17:42:30.643Z,17.40
2019-03-29T17:44:59.236Z,17.30
2019-03-29T17:47:27.722Z,17.00
2019-03-29T17:49:56.118Z,17.00
2019-03-29T17:52:24.400Z,17.00
2019-03-29T17:54:52.771Z,17.00
2019-03-29T17:57:21.239Z,17.10
2019-03-29T17:59:49.637Z,17.00
2019-03-29T18:02:18.393Z,17.10
2019-03-29T18:04:46.796Z,17.00
2019-03-29T18:07:15.231Z,16.80
2019-03-29T18:09:43.497Z,16.80
2019-03-29T18:12:11.833Z,16.70
2019-03-29T18:14:40.196Z,16.60
2019-03-29T18:17:08.510Z,16.70
2019-03-29T18:19:36.937Z,16.60
2019-03-29T18:22:05.198Z,16.60
2019-03-29T18:24:33.464Z,16.50
2019-03-29T18:27:01.865Z,16.40
2019-03-29T18:29:30.148Z,16.30
2019-03-29T18:31:58.499Z,16.20
2019-03-29T18:34:27.492Z,16.20
2019-03-29T18:36:57.745Z,16.10
2019-03-29T18:39:27.190Z,16.00
2019-03-29T18:41:56.433Z,16.00
2019-03-29T18:44:24.798Z,16.00
2019-03-29T18:46:53.110Z,16.00
2019-03-29T18:49:21.603Z,16.00
2019-03-29T18:51:50.052Z,16.10
2019-03-29T18:54:18.525Z,16.10
2019-03-29T18:56:47.152Z,16.10
2019-03-29T18:59:15.676Z,16.10
2019-03-29T19:01:44.197Z,16.00
2019-03-29T19:04:12.480Z,16.00
2019-03-29T19:06:43.904Z,15.90
2019-03-29T19:09:12.437Z,15.90
2019-03-29T19:11:40.697Z,15.80
2019-03-29T19:14:09.104Z,15.70
2019-03-29T19:16:37.417Z,15.70
2019-03-29T19:22:11.903Z,15.60
2019-03-29T19:24:40.439Z,15.50
2019-03-29T19:27:08.634Z,15.50
2019-03-29T19:29:36.940Z,15.50
2019-03-29T19:32:05.325Z,15.40
2019-03-29T19:34:33.751Z,15.30
2019-03-29T19:37:02.035Z,15.30
2019-03-29T19:39:30.363Z,15.20
2019-03-29T19:41:58.633Z,15.20
2019-03-29T19:44:27.017Z,15.10
2019-03-29T19:46:55.295Z,15.10
2019-03-29T19:49:23.649Z,15.00
2019-03-29T19:51:52.047Z,15.00
2019-03-29T19:54:20.443Z,14.90
2019-03-29T19:56:48.826Z,14.90
2019-03-29T19:59:17.181Z,14.80
2019-03-29T20:01:45.683Z,14.80
2019-03-29T20:04:14.147Z,14.80
2019-03-29T20:06:42.440Z,14.70
2019-03-29T20:09:10.918Z,14.70
2019-03-29T20:11:39.205Z,14.70
2019-03-29T20:14:07.505Z,14.70
2019-03-29T20:16:35.825Z,14.60
2019-03-29T20:19:04.186Z,14.60
2019-03-29T20:21:32.537Z,14.50
2019-03-29T20:24:00.832Z,14.50
2019-03-29T20:26:29.263Z,14.40
2019-03-29T20:28:57.530Z,14.30
2019-03-29T20:31:25.882Z,14.30
2019-03-29T20:33:54.192Z,14.30
2019-03-29T20:36:23.341Z,14.20
2019-03-29T20:38:51.753Z,14.20
2019-03-29T20:41:20.135Z,14.20
2019-03-29T20:43:48.365Z,14.10
2019-03-29T20:46:16.733Z,14.10
2019-03-29T20:48:45.082Z,14.10
2019-03-29T20:51:13.449Z,14.00
2019-03-29T20:53:43.635Z,13.90
2019-03-29T20:56:11.829Z,13.80
2019-03-29T20:58:40.209Z,13.80
2019-03-29T21:01:08.501Z,13.80
2019-03-29T21:03:36.872Z,13.70
2019-03-29T21:06:05.374Z,13.70
2019-03-29T21:08:33.795Z,13.60
2019-03-29T21:11:02.118Z,13.50
2019-03-29T21:13:30.711Z,13.50
2019-03-29T21:15:59.072Z,13.40
2019-03-29T21:18:27.505Z,13.30
2019-03-29T21:20:55.801Z,13.30
2019-03-29T21:23:24.144Z,13.20
2019-03-29T21:25:52.521Z,13.10
2019-03-29T21:28:21.069Z,13.10
2019-03-29T21:30:49.366Z,13.10
2019-03-29T21:33:17.815Z,13.00
2019-03-29T21:35:46.076Z,13.00
2019-03-29T21:38:14.550Z,12.90
2019-03-29T21:40:42.790Z,12.80
2019-03-29T21:43:11.243Z,12.70
2019-03-29T21:45:39.582Z,12.70
2019-03-29T21:48:27.526Z,12.60
2019-03-29T21:50:38.092Z,12.60
2019-03-29T21:53:06.477Z,12.60
2019-03-29T21:55:34.977Z,12.50
2019-03-29T21:58:03.355Z,12.40
2019-03-29T22:00:31.776Z,12.40
2019-03-29T22:03:00.089Z,12.40
2019-03-29T22:05:28.426Z,12.40
2019-03-29T22:07:56.735Z,12.30
2019-03-29T22:10:25.196Z,12.30
2019-03-29T22:12:53.448Z,12.30
2019-03-29T22:15:21.693Z,12.30
2019-03-29T22:17:50.069Z,12.20
2019-03-29T22:20:18.511Z,12.20
2019-03-29T22:22:47.182Z,12.20
2019-03-29T22:25:15.683Z,12.20
2019-03-29T22:27:43.973Z,12.20
2019-03-29T22:30:12.517Z,12.20
2019-03-29T22:32:42.341Z,12.10
2019-03-29T22:35:10.830Z,12.10
2019-03-29T22:37:39.174Z,12.10
2019-03-29T22:40:08.253Z,12.00
2019-03-29T22:42:36.778Z,12.00
2019-03-29T22:45:06.749Z,12.00
2019-03-29T22:47:36.406Z,11.90
2019-03-29T22:50:05.326Z,11.80
2019-03-29T22:52:34.178Z,11.80
2019-03-29T22:55:02.689Z,11.70
2019-03-29T22:57:32.685Z,11.70
2019-03-29T23:00:01.010Z,11.60
2019-03-29T23:02:31.120Z,11.70
2019-03-29T23:04:59.525Z,11.60
2019-03-29T23:07:27.846Z,11.60
2019-03-29T23:09:56.208Z,11.50
2019-03-29T23:12:24.661Z,11.50
2019-03-29T23:14:53.094Z,11.40
2019-03-29T23:17:21.438Z,11.40
2019-03-29T23:19:49.685Z,11.50
2019-03-29T23:22:18.005Z,11.50
2019-03-29T23:24:46.248Z,11.40
2019-03-29T23:27:14.588Z,11.40
2019-03-29T23:29:42.860Z,11.40
2019-03-29T23:32:11.175Z,11.40
2019-03-29T23:34:39.504Z,11.30
2019-03-29T23:37:07.884Z,11.30
2019-03-29T23:39:36.105Z,11.30
2019-03-29T23:42:04.654Z,11.20
2019-03-29T23:44:32.962Z,11.30
2019-03-29T23:47:01.184Z,11.30
2019-03-29T23:49:29.507Z,11.30
2019-03-29T23:51:58.193Z,11.20
2019-03-29T23:54:26.610Z,11.10
2019-03-29T23:56:55.005Z,11.20
2019-03-29T23:59:23.379Z,11.10
